sensor_id;sensor_type;location;lat;lon;timestamp;pressure;altitude;pressure_sealevel;temperature;humidity
18652;BME280;9455;54.302;10.124;2022-12-18T00:02:13;102801.97;;;-3.95;91.58
18652;BME280;9455;54.302;10.124;2022-12-18T00:04:40;102816.81;;;-3.73;91.11
18652;BME280;9455;54.302;10.124;2022-12-18T00:07:07;102817.66;;;-3.80;91.24
18652;BME280;9455;54.302;10.124;2022-12-18T00:09:34;102815.03;;;-3.80;90.99
18652;BME280;9455;54.302;10.124;2022-12-18T00:12:00;102822.88;;;-3.76;90.71
18652;BME280;9455;54.302;10.124;2022-12-18T00:14:27;102825.44;;;-3.83;90.70
18652;BME280;9455;54.302;10.124;2022-12-18T00:16:55;102844.59;;;-3.81;90.13
18652;BME280;9455;54.302;10.124;2022-12-18T00:19:23;102835.06;;;-3.78;90.25
18652;BME280;9455;54.302;10.124;2022-12-18T00:21:50;102830.69;;;-3.80;90.34
18652;BME280;9455;54.302;10.124;2022-12-18T00:24:17;102829.72;;;-3.96;90.05
18652;BME280;9455;54.302;10.124;2022-12-18T00:26:44;102826.28;;;-3.90;89.94
18652;BME280;9455;54.302;10.124;2022-12-18T00:29:12;102820.13;;;-4.04;89.96
18652;BME280;9455;54.302;10.124;2022-12-18T00:31:39;102827.94;;;-4.06;90.55
18652;BME280;9455;54.302;10.124;2022-12-18T00:34:09;102825.31;;;-4.07;90.23
18652;BME280;9455;54.302;10.124;2022-12-18T00:36:36;102823.66;;;-3.99;89.84
18652;BME280;9455;54.302;10.124;2022-12-18T00:39:04;102821.88;;;-4.08;90.36
18652;BME280;9455;54.302;10.124;2022-12-18T00:41:31;102817.53;;;-4.04;90.51
18652;BME280;9455;54.302;10.124;2022-12-18T00:44:17;102810.53;;;-4.13;90.41
18652;BME280;9455;54.302;10.124;2022-12-18T00:46:44;102813.97;;;-4.18;90.50
18652;BME280;9455;54.302;10.124;2022-12-18T00:49:16;102813.16;;;-4.11;90.68
18652;BME280;9455;54.302;10.124;2022-12-18T00:51:43;102816.66;;;-4.06;90.47
18652;BME280;9455;54.302;10.124;2022-12-18T00:54:10;102811.47;;;-4.06;89.81
18652;BME280;9455;54.302;10.124;2022-12-18T00:56:37;102809.69;;;-4.13;89.96
18652;BME280;9455;54.302;10.124;2022-12-18T00:59:04;102802.63;;;-4.31;89.66
18652;BME280;9455;54.302;10.124;2022-12-18T01:01:31;102811.44;;;-4.11;90.02
18652;BME280;9455;54.302;10.124;2022-12-18T01:04:00;102819.22;;;-4.12;89.47
18652;BME280;9455;54.302;10.124;2022-12-18T01:06:28;102834.78;;;-4.21;89.11
18652;BME280;9455;54.302;10.124;2022-12-18T01:08:54;102826.97;;;-4.21;89.46
18652;BME280;9455;54.302;10.124;2022-12-18T01:11:22;102842.50;;;-4.39;88.85
18652;BME280;9455;54.302;10.124;2022-12-18T01:13:49;102849.47;;;-4.32;89.49
18652;BME280;9455;54.302;10.124;2022-12-18T01:16:17;102846.06;;;-4.25;89.39
18652;BME280;9455;54.302;10.124;2022-12-18T01:18:44;102845.16;;;-4.30;89.82
18652;BME280;9455;54.302;10.124;2022-12-18T01:21:13;102838.22;;;-4.31;89.63
18652;BME280;9455;54.302;10.124;2022-12-18T01:23:51;102827.91;;;-4.16;89.38
18652;BME280;9455;54.302;10.124;2022-12-18T01:26:17;102836.44;;;-4.40;89.87
18652;BME280;9455;54.302;10.124;2022-12-18T01:28:44;102833.03;;;-4.25;89.73
18652;BME280;9455;54.302;10.124;2022-12-18T01:31:13;102846.00;;;-4.34;90.07
18652;BME280;9455;54.302;10.124;2022-12-18T01:33:40;102849.47;;;-4.35;90.13
18652;BME280;9455;54.302;10.124;2022-12-18T01:36:07;102859.00;;;-4.37;89.87
18652;BME280;9455;54.302;10.124;2022-12-18T01:38:33;102850.38;;;-4.29;89.58
18652;BME280;9455;54.302;10.124;2022-12-18T01:41:01;102867.69;;;-4.34;89.61
18652;BME280;9455;54.302;10.124;2022-12-18T01:43:46;102862.56;;;-4.26;89.50
18652;BME280;9455;54.302;10.124;2022-12-18T01:46:14;102865.97;;;-4.35;89.46
18652;BME280;9455;54.302;10.124;2022-12-18T01:48:41;102871.13;;;-4.41;89.53
18652;BME280;9455;54.302;10.124;2022-12-18T01:51:10;102876.28;;;-4.44;90.10
18652;BME280;9455;54.302;10.124;2022-12-18T01:53:39;102863.34;;;-4.36;90.46
18652;BME280;9455;54.302;10.124;2022-12-18T01:56:08;102866.88;;;-4.31;90.15
18652;BME280;9455;54.302;10.124;2022-12-18T01:58:43;102864.19;;;-4.42;89.67
18652;BME280;9455;54.302;10.124;2022-12-18T02:01:13;102861.66;;;-4.31;90.11
18652;BME280;9455;54.302;10.124;2022-12-18T02:03:41;102860.84;;;-4.26;89.65
18652;BME280;9455;54.302;10.124;2022-12-18T02:06:13;102859.88;;;-4.34;89.46
18652;BME280;9455;54.302;10.124;2022-12-18T02:08:48;102863.50;;;-4.15;89.34
18652;BME280;9455;54.302;10.124;2022-12-18T02:11:33;102866.13;;;-4.12;88.94
18652;BME280;9455;54.302;10.124;2022-12-18T02:14:10;102873.94;;;-4.12;89.30
18652;BME280;9455;54.302;10.124;2022-12-18T02:16:45;102866.97;;;-4.16;89.08
18652;BME280;9455;54.302;10.124;2022-12-18T02:19:24;102864.41;;;-4.10;89.70
18652;BME280;9455;54.302;10.124;2022-12-18T02:21:58;102864.41;;;-4.10;89.35
18652;BME280;9455;54.302;10.124;2022-12-18T02:24:39;102873.06;;;-4.10;89.29
18652;BME280;9455;54.302;10.124;2022-12-18T02:27:10;102866.94;;;-4.19;89.32
18652;BME280;9455;54.302;10.124;2022-12-18T02:29:40;102863.44;;;-4.24;89.71
18652;BME280;9455;54.302;10.124;2022-12-18T02:32:11;102865.19;;;-4.23;89.76
18652;BME280;9455;54.302;10.124;2022-12-18T02:34:40;102873.03;;;-4.20;89.48
18652;BME280;9455;54.302;10.124;2022-12-18T02:37:12;102882.59;;;-4.16;90.09
18652;BME280;9455;54.302;10.124;2022-12-18T02:39:43;102874.75;;;-4.21;89.92
18652;BME280;9455;54.302;10.124;2022-12-18T02:42:12;102876.47;;;-4.26;89.60
18652;BME280;9455;54.302;10.124;2022-12-18T02:44:42;102885.19;;;-4.19;89.78
18652;BME280;9455;54.302;10.124;2022-12-18T02:47:10;102883.38;;;-4.29;89.47
18652;BME280;9455;54.302;10.124;2022-12-18T02:49:44;102881.66;;;-4.26;89.92
18652;BME280;9455;54.302;10.124;2022-12-18T02:52:23;102889.44;;;-4.29;89.65
18652;BME280;9455;54.302;10.124;2022-12-18T02:54:58;102879.06;;;-4.27;89.26
18652;BME280;9455;54.302;10.124;2022-12-18T02:57:34;102885.16;;;-4.22;89.46
18652;BME280;9455;54.302;10.124;2022-12-18T03:00:06;102874.75;;;-4.21;89.96
18652;BME280;9455;54.302;10.124;2022-12-18T03:02:39;102870.44;;;-4.17;89.38
18652;BME280;9455;54.302;10.124;2022-12-18T03:05:12;102886.03;;;-4.23;89.18
18652;BME280;9455;54.302;10.124;2022-12-18T03:07:45;102886.84;;;-4.29;89.21
18652;BME280;9455;54.302;10.124;2022-12-18T03:10:16;102885.16;;;-4.22;88.98
18652;BME280;9455;54.302;10.124;2022-12-18T03:12:51;102875.56;;;-4.29;89.38
18652;BME280;9455;54.302;10.124;2022-12-18T03:15:21;102871.28;;;-4.20;89.09
18652;BME280;9455;54.302;10.124;2022-12-18T03:17:54;102876.47;;;-4.23;89.47
18652;BME280;9455;54.302;10.124;2022-12-18T03:20:24;102863.44;;;-4.27;89.30
18652;BME280;9455;54.302;10.124;2022-12-18T03:22:57;102879.94;;;-4.21;89.07
18652;BME280;9455;54.302;10.124;2022-12-18T03:25:26;102880.88;;;-4.11;89.23
18652;BME280;9455;54.302;10.124;2022-12-18T03:27:56;102880.78;;;-4.26;89.36
18652;BME280;9455;54.302;10.124;2022-12-18T03:30:26;102879.09;;;-4.23;89.54
18652;BME280;9455;54.302;10.124;2022-12-18T03:33:00;102886.88;;;-4.27;89.04
18652;BME280;9455;54.302;10.124;2022-12-18T03:35:33;102884.13;;;-4.42;89.21
18652;BME280;9455;54.302;10.124;2022-12-18T03:38:04;102885.88;;;-4.44;89.43
18652;BME280;9455;54.302;10.124;2022-12-18T03:40:35;102882.44;;;-4.37;90.16
18652;BME280;9455;54.302;10.124;2022-12-18T03:43:10;102882.47;;;-4.30;90.05
18652;BME280;9455;54.302;10.124;2022-12-18T03:45:42;102878.97;;;-4.36;89.93
18652;BME280;9455;54.302;10.124;2022-12-18T03:48:19;102872.19;;;-4.13;89.79
18652;BME280;9455;54.302;10.124;2022-12-18T03:50:56;102877.28;;;-4.28;88.76
18652;BME280;9455;54.302;10.124;2022-12-18T03:53:32;102874.69;;;-4.33;89.08
18652;BME280;9455;54.302;10.124;2022-12-18T03:56:02;102875.53;;;-4.32;88.99
18652;BME280;9455;54.302;10.124;2022-12-18T03:58:33;102867.75;;;-4.26;89.55
18652;BME280;9455;54.302;10.124;2022-12-18T04:01:04;102865.91;;;-4.41;88.76
18652;BME280;9455;54.302;10.124;2022-12-18T04:03:35;102861.53;;;-4.45;89.79
18652;BME280;9455;54.302;10.124;2022-12-18T04:06:03;102853.84;;;-4.27;89.33
18652;BME280;9455;54.302;10.124;2022-12-18T04:08:30;102853.03;;;-4.18;89.19
18652;BME280;9455;54.302;10.124;2022-12-18T04:10:57;102852.13;;;-4.26;89.16
18652;BME280;9455;54.302;10.124;2022-12-18T04:13:24;102848.63;;;-4.33;89.40
18652;BME280;9455;54.302;10.124;2022-12-18T04:15:52;102854.72;;;-4.29;89.30
18652;BME280;9455;54.302;10.124;2022-12-18T04:18:19;102862.47;;;-4.35;88.90
18652;BME280;9455;54.302;10.124;2022-12-18T04:20:46;102852.88;;;-4.45;89.65
18652;BME280;9455;54.302;10.124;2022-12-18T04:23:12;102860.69;;;-4.41;89.44
18652;BME280;9455;54.302;10.124;2022-12-18T04:25:39;102869.47;;;-4.30;89.12
18652;BME280;9455;54.302;10.124;2022-12-18T04:28:06;102880.75;;;-4.29;88.74
18652;BME280;9455;54.302;10.124;2022-12-18T04:30:32;102885.84;;;-4.47;88.81
18652;BME280;9455;54.302;10.124;2022-12-18T04:33:00;102885.06;;;-4.36;89.14
18652;BME280;9455;54.302;10.124;2022-12-18T04:35:27;102892.88;;;-4.36;88.24
18652;BME280;9455;54.302;10.124;2022-12-18T04:37:53;102891.13;;;-4.38;88.55
18652;BME280;9455;54.302;10.124;2022-12-18T04:40:20;102890.28;;;-4.36;88.91
18652;BME280;9455;54.302;10.124;2022-12-18T04:42:46;102904.06;;;-4.46;88.13
18652;BME280;9455;54.302;10.124;2022-12-18T04:45:13;102913.66;;;-4.40;88.19
18652;BME280;9455;54.302;10.124;2022-12-18T04:47:40;102910.94;;;-4.54;88.58
18652;BME280;9455;54.302;10.124;2022-12-18T04:50:08;102913.56;;;-4.51;88.48
18652;BME280;9455;54.302;10.124;2022-12-18T04:52:35;102907.53;;;-4.48;88.56
18652;BME280;9455;54.302;10.124;2022-12-18T04:55:01;102900.56;;;-4.48;88.64
18652;BME280;9455;54.302;10.124;2022-12-18T04:57:28;102913.53;;;-4.52;88.21
18652;BME280;9455;54.302;10.124;2022-12-18T04:59:55;102909.19;;;-4.53;87.98
18652;BME280;9455;54.302;10.124;2022-12-18T05:02:21;102902.25;;;-4.56;88.16
18652;BME280;9455;54.302;10.124;2022-12-18T05:04:48;102908.28;;;-4.61;88.23
18652;BME280;9455;54.302;10.124;2022-12-18T05:07:16;102901.28;;;-4.65;88.22
18652;BME280;9455;54.302;10.124;2022-12-18T05:09:42;102907.34;;;-4.66;88.21
18652;BME280;9455;54.302;10.124;2022-12-18T05:12:09;102913.44;;;-4.64;88.71
18652;BME280;9455;54.302;10.124;2022-12-18T05:14:36;102915.16;;;-4.66;88.27
18652;BME280;9455;54.302;10.124;2022-12-18T05:17:02;102922.09;;;-4.68;88.26
18652;BME280;9455;54.302;10.124;2022-12-18T05:19:29;102922.94;;;-4.66;88.87
18652;BME280;9455;54.302;10.124;2022-12-18T05:21:55;102927.41;;;-4.53;89.07
18652;BME280;9455;54.302;10.124;2022-12-18T05:24:24;102927.38;;;-4.56;88.66
18652;BME280;9455;54.302;10.124;2022-12-18T05:26:50;102927.38;;;-4.56;87.96
18652;BME280;9455;54.302;10.124;2022-12-18T05:29:17;102929.16;;;-4.55;87.72
18652;BME280;9455;54.302;10.124;2022-12-18T05:31:44;102928.94;;;-4.78;87.94
18652;BME280;9455;54.302;10.124;2022-12-18T05:34:10;102922.16;;;-4.62;88.72
18652;BME280;9455;54.302;10.124;2022-12-18T05:36:37;102922.16;;;-4.58;88.04
18652;BME280;9455;54.302;10.124;2022-12-18T05:39:03;102928.09;;;-4.75;88.08
18652;BME280;9455;54.302;10.124;2022-12-18T05:41:32;102925.56;;;-4.69;88.09
18652;BME280;9455;54.302;10.124;2022-12-18T05:43:58;102923.72;;;-4.79;88.22
18652;BME280;9455;54.302;10.124;2022-12-18T05:46:25;102929.06;;;-4.64;88.06
18652;BME280;9455;54.302;10.124;2022-12-18T05:48:52;102936.78;;;-4.72;87.51
18652;BME280;9455;54.302;10.124;2022-12-18T05:51:21;102930.63;;;-4.81;86.77
18652;BME280;9455;54.302;10.124;2022-12-18T05:53:48;102931.53;;;-4.78;86.63
18652;BME280;9455;54.302;10.124;2022-12-18T05:56:19;102933.25;;;-4.78;87.40
18652;BME280;9455;54.302;10.124;2022-12-18T05:58:47;102927.03;;;-4.92;87.06
18652;BME280;9455;54.302;10.124;2022-12-18T06:01:18;102932.31;;;-4.86;87.26
18652;BME280;9455;54.302;10.124;2022-12-18T06:03:46;102929.56;;;-5.00;87.35
18652;BME280;9455;54.302;10.124;2022-12-18T06:06:14;102939.06;;;-5.03;87.21
18652;BME280;9455;54.302;10.124;2022-12-18T06:08:41;102942.34;;;-5.19;87.00
18652;BME280;9455;54.302;10.124;2022-12-18T06:11:08;102947.50;;;-5.22;87.39
18652;BME280;9455;54.302;10.124;2022-12-18T06:13:34;102943.19;;;-5.22;87.66
18652;BME280;9455;54.302;10.124;2022-12-18T06:16:03;102949.97;;;-5.33;87.17
18652;BME280;9455;54.302;10.124;2022-12-18T06:18:30;102949.31;;;-5.15;87.85
18652;BME280;9455;54.302;10.124;2022-12-18T06:20:58;102949.19;;;-5.27;87.04
18652;BME280;9455;54.302;10.124;2022-12-18T06:23:25;102940.47;;;-5.29;87.08
18652;BME280;9455;54.302;10.124;2022-12-18T06:25:52;102948.22;;;-5.32;86.43
18652;BME280;9455;54.302;10.124;2022-12-18T06:28:19;102949.22;;;-5.24;86.87
18652;BME280;9455;54.302;10.124;2022-12-18T06:30:47;102952.50;;;-5.39;85.72
18652;BME280;9455;54.302;10.124;2022-12-18T06:33:15;102954.81;;;-5.60;85.99
18652;BME280;9455;54.302;10.124;2022-12-18T06:35:42;102952.31;;;-5.52;86.36
18652;BME280;9455;54.302;10.124;2022-12-18T06:38:09;102951.59;;;-5.41;86.87
18652;BME280;9455;54.302;10.124;2022-12-18T06:40:37;102948.09;;;-5.44;86.88
18652;BME280;9455;54.302;10.124;2022-12-18T06:43:04;102945.50;;;-5.43;87.08
18652;BME280;9455;54.302;10.124;2022-12-18T06:45:30;102957.63;;;-5.43;86.59
18652;BME280;9455;54.302;10.124;2022-12-18T06:47:57;102972.41;;;-5.39;87.50
18652;BME280;9455;54.302;10.124;2022-12-18T06:50:25;102967.97;;;-5.46;86.99
18652;BME280;9455;54.302;10.124;2022-12-18T06:52:52;102967.28;;;-5.33;87.09
18652;BME280;9455;54.302;10.124;2022-12-18T06:55:18;102961.28;;;-5.29;87.15
18652;BME280;9455;54.302;10.124;2022-12-18T06:57:45;102963.06;;;-5.25;87.24
18652;BME280;9455;54.302;10.124;2022-12-18T07:00:12;102968.91;;;-5.43;86.81
18652;BME280;9455;54.302;10.124;2022-12-18T07:02:39;102974.94;;;-5.45;86.85
18652;BME280;9455;54.302;10.124;2022-12-18T07:05:06;102980.19;;;-5.39;87.06
18652;BME280;9455;54.302;10.124;2022-12-18T07:07:34;102980.09;;;-5.48;87.19
18652;BME280;9455;54.302;10.124;2022-12-18T07:10:01;102980.72;;;-5.64;87.63
18652;BME280;9455;54.302;10.124;2022-12-18T07:12:28;102985.97;;;-5.61;88.16
18652;BME280;9455;54.302;10.124;2022-12-18T07:14:54;102992.09;;;-5.56;87.15
18652;BME280;9455;54.302;10.124;2022-12-18T07:17:21;102994.50;;;-5.70;87.30
18652;BME280;9455;54.302;10.124;2022-12-18T07:19:48;103000.59;;;-5.69;87.66
18652;BME280;9455;54.302;10.124;2022-12-18T07:22:14;102999.78;;;-5.65;87.61
18652;BME280;9455;54.302;10.124;2022-12-18T07:24:42;102998.91;;;-5.64;86.77
18652;BME280;9455;54.302;10.124;2022-12-18T07:27:09;103009.50;;;-5.52;86.91
18652;BME280;9455;54.302;10.124;2022-12-18T07:29:35;103016.19;;;-5.69;86.02
18652;BME280;9455;54.302;10.124;2022-12-18T07:32:02;103012.66;;;-5.72;86.49
18652;BME280;9455;54.302;10.124;2022-12-18T07:34:28;103021.16;;;-5.85;86.23
18652;BME280;9455;54.302;10.124;2022-12-18T07:36:55;103028.91;;;-5.89;86.66
18652;BME280;9455;54.302;10.124;2022-12-18T07:39:22;103033.28;;;-5.81;86.09
18652;BME280;9455;54.302;10.124;2022-12-18T07:41:49;103031.63;;;-5.79;85.23
18652;BME280;9455;54.302;10.124;2022-12-18T07:44:30;103035.78;;;-5.91;84.45
18652;BME280;9455;54.302;10.124;2022-12-18T07:46:56;103040.25;;;-5.80;84.94
18652;BME280;9455;54.302;10.124;2022-12-18T07:49:23;103036.69;;;-5.88;84.39
18652;BME280;9455;54.302;10.124;2022-12-18T07:51:50;103038.19;;;-6.02;84.92
18652;BME280;9455;54.302;10.124;2022-12-18T07:54:16;103039.91;;;-6.04;84.69
18652;BME280;9455;54.302;10.124;2022-12-18T07:56:43;103041.50;;;-6.12;84.71
18652;BME280;9455;54.302;10.124;2022-12-18T07:59:11;103044.03;;;-6.15;85.79
18652;BME280;9455;54.302;10.124;2022-12-18T08:01:38;103039.03;;;-6.03;85.76
18652;BME280;9455;54.302;10.124;2022-12-18T08:04:04;103035.66;;;-5.97;86.08
18652;BME280;9455;54.302;10.124;2022-12-18T08:06:31;103037.44;;;-5.95;86.11
18652;BME280;9455;54.302;10.124;2022-12-18T08:08:57;103043.50;;;-5.94;85.56
18652;BME280;9455;54.302;10.124;2022-12-18T08:11:25;103043.66;;;-5.87;85.20
18652;BME280;9455;54.302;10.124;2022-12-18T08:13:53;103050.53;;;-5.89;86.25
18652;BME280;9455;54.302;10.124;2022-12-18T08:16:22;103048.78;;;-5.90;86.34
18652;BME280;9455;54.302;10.124;2022-12-18T08:18:48;103045.53;;;-5.75;85.79
18652;BME280;9455;54.302;10.124;2022-12-18T08:21:16;103039.53;;;-5.71;85.39
18652;BME280;9455;54.302;10.124;2022-12-18T08:23:44;103033.50;;;-5.68;85.16
18652;BME280;9455;54.302;10.124;2022-12-18T08:26:11;103031.59;;;-5.80;85.56
18652;BME280;9455;54.302;10.124;2022-12-18T08:28:38;103025.88;;;-5.56;85.00
18652;BME280;9455;54.302;10.124;2022-12-18T08:31:05;103033.66;;;-5.59;85.44
18652;BME280;9455;54.302;10.124;2022-12-18T08:33:34;103027.47;;;-5.66;85.17
18652;BME280;9455;54.302;10.124;2022-12-18T08:36:02;103031.94;;;-5.57;85.62
18652;BME280;9455;54.302;10.124;2022-12-18T08:38:28;103023.53;;;-5.41;85.76
18652;BME280;9455;54.302;10.124;2022-12-18T08:40:58;103033.78;;;-5.50;85.23
18652;BME280;9455;54.302;10.124;2022-12-18T08:43:25;103035.41;;;-5.58;85.20
18652;BME280;9455;54.302;10.124;2022-12-18T08:46:10;103035.69;;;-5.39;85.00
18652;BME280;9455;54.302;10.124;2022-12-18T08:48:38;103033.97;;;-5.38;85.38
18652;BME280;9455;54.302;10.124;2022-12-18T08:51:05;103030.38;;;-5.45;85.38
18652;BME280;9455;54.302;10.124;2022-12-18T08:53:31;103027.84;;;-5.42;85.18
18652;BME280;9455;54.302;10.124;2022-12-18T08:55:58;103034.06;;;-5.29;85.43
18652;BME280;9455;54.302;10.124;2022-12-18T08:58:25;103039.22;;;-5.32;85.92
18652;BME280;9455;54.302;10.124;2022-12-18T09:00:51;103030.66;;;-5.25;84.98
18652;BME280;9455;54.302;10.124;2022-12-18T09:03:19;103037.31;;;-5.45;85.59
18652;BME280;9455;54.302;10.124;2022-12-18T09:05:48;103042.56;;;-5.44;85.27
18652;BME280;9455;54.302;10.124;2022-12-18T09:08:15;103043.66;;;-5.28;86.18
18652;BME280;9455;54.302;10.124;2022-12-18T09:10:42;103047.78;;;-5.39;85.39
18652;BME280;9455;54.302;10.124;2022-12-18T09:13:09;103060.03;;;-5.32;85.32
18652;BME280;9455;54.302;10.124;2022-12-18T09:15:40;103051.47;;;-5.25;85.34
18652;BME280;9455;54.302;10.124;2022-12-18T09:18:07;103046.16;;;-5.34;85.15
18652;BME280;9455;54.302;10.124;2022-12-18T09:20:34;103037.53;;;-5.30;84.75
18652;BME280;9455;54.302;10.124;2022-12-18T09:23:02;103038.59;;;-5.16;85.11
18652;BME280;9455;54.302;10.124;2022-12-18T09:25:29;103046.22;;;-5.27;84.88
18652;BME280;9455;54.302;10.124;2022-12-18T09:27:58;103051.56;;;-5.18;84.88
18652;BME280;9455;54.302;10.124;2022-12-18T09:30:25;103042.94;;;-5.15;84.79
18652;BME280;9455;54.302;10.124;2022-12-18T09:32:54;103048.19;;;-5.12;85.04
18652;BME280;9455;54.302;10.124;2022-12-18T09:35:21;103045.38;;;-5.27;84.69
18652;BME280;9455;54.302;10.124;2022-12-18T09:37:48;103051.56;;;-5.18;85.37
18652;BME280;9455;54.302;10.124;2022-12-18T09:40:18;103058.44;;;-5.23;85.06
18652;BME280;9455;54.302;10.124;2022-12-18T09:42:51;103050.81;;;-5.09;85.52
18652;BME280;9455;54.302;10.124;2022-12-18T09:45:19;103047.31;;;-5.11;84.85
18652;BME280;9455;54.302;10.124;2022-12-18T09:47:47;103042.06;;;-5.17;84.69
18652;BME280;9455;54.302;10.124;2022-12-18T09:50:24;103043.06;;;-5.06;85.09
18652;BME280;9455;54.302;10.124;2022-12-18T09:52:57;103043.97;;;-5.03;85.16
18652;BME280;9455;54.302;10.124;2022-12-18T09:55:29;103041.50;;;-4.92;84.68
18652;BME280;9455;54.302;10.124;2022-12-18T09:58:02;103046.72;;;-4.92;84.75
18652;BME280;9455;54.302;10.124;2022-12-18T10:00:31;103048.50;;;-4.87;84.47
18652;BME280;9455;54.302;10.124;2022-12-18T10:03:00;103049.53;;;-4.74;84.58
18652;BME280;9455;54.302;10.124;2022-12-18T10:05:34;103044.28;;;-4.77;84.17
18652;BME280;9455;54.302;10.124;2022-12-18T10:08:07;103038.94;;;-4.89;84.76
18652;BME280;9455;54.302;10.124;2022-12-18T10:10:42;103047.63;;;-4.90;84.60
18652;BME280;9455;54.302;10.124;2022-12-18T10:13:16;103053.09;;;-4.69;85.43
18652;BME280;9455;54.302;10.124;2022-12-18T10:15:54;103059.19;;;-4.66;84.65
18652;BME280;9455;54.302;10.124;2022-12-18T10:18:33;103055.81;;;-4.57;85.24
18652;BME280;9455;54.302;10.124;2022-12-18T10:21:05;103054.16;;;-4.49;85.34
18652;BME280;9455;54.302;10.124;2022-12-18T10:23:42;103049.84;;;-4.47;85.96
18652;BME280;9455;54.302;10.124;2022-12-18T10:26:15;103051.97;;;-4.07;84.86
18652;BME280;9455;54.302;10.124;2022-12-18T10:28:41;103054.59;;;-4.10;85.07
18652;BME280;9455;54.302;10.124;2022-12-18T10:31:14;103052.97;;;-3.96;84.21
18652;BME280;9455;54.302;10.124;2022-12-18T10:33:42;103049.63;;;-3.79;83.96
18652;BME280;9455;54.302;10.124;2022-12-18T10:36:09;103057.53;;;-3.70;83.65
18652;BME280;9455;54.302;10.124;2022-12-18T10:38:36;103069.63;;;-3.76;84.43
18652;BME280;9455;54.302;10.124;2022-12-18T10:41:04;103069.66;;;-3.78;84.20
18652;BME280;9455;54.302;10.124;2022-12-18T10:43:36;103070.56;;;-3.71;84.37
18652;BME280;9455;54.302;10.124;2022-12-18T10:46:14;103076.63;;;-3.74;83.89
18652;BME280;9455;54.302;10.124;2022-12-18T10:48:51;103071.41;;;-3.74;84.01
18652;BME280;9455;54.302;10.124;2022-12-18T10:51:20;103056.63;;;-3.73;84.68
18652;BME280;9455;54.302;10.124;2022-12-18T10:53:53;103073.06;;;-3.85;84.87
18652;BME280;9455;54.302;10.124;2022-12-18T10:56:21;103062.63;;;-3.82;85.17
18652;BME280;9455;54.302;10.124;2022-12-18T10:58:58;103059.00;;;-4.02;86.14
18652;BME280;9455;54.302;10.124;2022-12-18T11:01:25;103052.16;;;-3.91;85.67
18652;BME280;9455;54.302;10.124;2022-12-18T11:04:01;103048.66;;;-3.90;86.11
18652;BME280;9455;54.302;10.124;2022-12-18T11:06:29;103059.19;;;-3.81;86.08
18652;BME280;9455;54.302;10.124;2022-12-18T11:08:59;103062.00;;;-3.55;85.46
18652;BME280;9455;54.302;10.124;2022-12-18T11:11:27;103060.22;;;-3.62;85.39
18652;BME280;9455;54.302;10.124;2022-12-18T11:14:12;103067.25;;;-3.46;85.47
18652;BME280;9455;54.302;10.124;2022-12-18T11:16:44;103058.56;;;-3.45;85.44
18652;BME280;9455;54.302;10.124;2022-12-18T11:19:20;103056.78;;;-3.52;85.03
18652;BME280;9455;54.302;10.124;2022-12-18T11:21:47;103055.09;;;-3.47;84.95
18652;BME280;9455;54.302;10.124;2022-12-18T11:24:27;103036.78;;;-3.55;84.83
18652;BME280;9455;54.302;10.124;2022-12-18T11:26:55;103035.97;;;-3.46;84.67
18652;BME280;9455;54.302;10.124;2022-12-18T11:29:28;103034.22;;;-3.47;85.42
18652;BME280;9455;54.302;10.124;2022-12-18T11:32:31;103044.69;;;-3.38;85.61
18652;BME280;9455;54.302;10.124;2022-12-18T11:35:09;103039.50;;;-3.41;85.23
18652;BME280;9455;54.302;10.124;2022-12-18T11:37:39;103039.50;;;-3.41;85.45
18652;BME280;9455;54.302;10.124;2022-12-18T11:40:13;103041.28;;;-3.33;85.40
18652;BME280;9455;54.302;10.124;2022-12-18T11:42:45;103035.13;;;-3.41;85.39
18652;BME280;9455;54.302;10.124;2022-12-18T11:45:25;103038.66;;;-3.34;85.02
18652;BME280;9455;54.302;10.124;2022-12-18T11:47:57;103042.25;;;-3.14;84.61
18652;BME280;9455;54.302;10.124;2022-12-18T11:50:26;103044.00;;;-3.13;84.50
18652;BME280;9455;54.302;10.124;2022-12-18T11:52:55;103036.13;;;-3.22;84.77
18652;BME280;9455;54.302;10.124;2022-12-18T11:55:36;103030.97;;;-3.10;84.79
18652;BME280;9455;54.302;10.124;2022-12-18T11:58:10;103035.34;;;-3.03;85.01
18652;BME280;9455;54.302;10.124;2022-12-18T12:00:43;103030.16;;;-2.96;84.88
18652;BME280;9455;54.302;10.124;2022-12-18T12:03:22;103017.13;;;-2.94;84.87
18652;BME280;9455;54.302;10.124;2022-12-18T12:06:01;103020.53;;;-3.07;84.85
18652;BME280;9455;54.302;10.124;2022-12-18T12:08:38;103014.56;;;-2.83;85.06
18652;BME280;9455;54.302;10.124;2022-12-18T12:11:16;103017.19;;;-2.76;84.98
18652;BME280;9455;54.302;10.124;2022-12-18T12:13:53;103000.59;;;-2.89;85.37
18652;BME280;9455;54.302;10.124;2022-12-18T12:16:32;102990.22;;;-2.76;84.51
18652;BME280;9455;54.302;10.124;2022-12-18T12:19:10;102984.09;;;-2.82;84.58
18652;BME280;9455;54.302;10.124;2022-12-18T12:21:49;102991.06;;;-2.79;84.25
18652;BME280;9455;54.302;10.124;2022-12-18T12:24:29;103001.47;;;-2.88;84.80
18652;BME280;9455;54.302;10.124;2022-12-18T12:27:08;102988.38;;;-2.99;84.96
18652;BME280;9455;54.302;10.124;2022-12-18T12:29:49;102979.72;;;-2.89;84.56
18652;BME280;9455;54.302;10.124;2022-12-18T12:32:40;102975.41;;;-2.82;84.40
18652;BME280;9455;54.302;10.124;2022-12-18T12:35:19;102975.41;;;-2.76;84.63
18652;BME280;9455;54.302;10.124;2022-12-18T12:37:57;102977.94;;;-2.96;84.58
18652;BME280;9455;54.302;10.124;2022-12-18T12:40:28;102974.50;;;-2.98;84.88
18652;BME280;9455;54.302;10.124;2022-12-18T12:43:00;102969.28;;;-2.86;85.35
18652;BME280;9455;54.302;10.124;2022-12-18T12:45:42;102956.22;;;-2.90;85.43
18652;BME280;9455;54.302;10.124;2022-12-18T12:48:17;102951.88;;;-2.79;84.70
18652;BME280;9455;54.302;10.124;2022-12-18T12:50:45;102944.03;;;-2.96;85.52
18652;BME280;9455;54.302;10.124;2022-12-18T12:53:22;102947.53;;;-2.86;85.88
18652;BME280;9455;54.302;10.124;2022-12-18T12:55:50;102939.72;;;-2.88;85.11
18652;BME280;9455;54.302;10.124;2022-12-18T12:58:25;102937.97;;;-2.84;86.01
18652;BME280;9455;54.302;10.124;2022-12-18T13:01:02;102923.22;;;-2.64;85.43
18652;BME280;9455;54.302;10.124;2022-12-18T13:03:43;102912.78;;;-2.55;84.67
18652;BME280;9455;54.302;10.124;2022-12-18T13:06:16;102900.59;;;-2.41;84.66